sensor_id;sensor_type;location;lat;lon;timestamp;temperature;humidity
2579;DHT22;1299;48.282;14.398;2023-12-04T00:01:13;-7.70;99.90
2579;DHT22;1299;48.282;14.398;2023-12-04T00:03:39;-7.80;99.90
2579;DHT22;1299;48.282;14.398;2023-12-04T00:06:07;-7.90;99.90
2579;DHT22;1299;48.282;14.398;2023-12-04T00:08:36;-8.00;99.90
2579;DHT22;1299;48.282;14.398;2023-12-04T00:11:03;-7.80;99.90
2579;DHT22;1299;48.282;14.398;2023-12-04T00:13:30;-7.70;99.90
2579;DHT22;1299;48.282;14.398;2023-12-04T00:15:57;-7.80;99.90
2579;DHT22;1299;48.282;14.398;2023-12-04T00:18:24;-8.00;99.90
2579;DHT22;1299;48.282;14.398;2023-12-04T00:20:51;-8.00;99.90
2579;DHT22;1299;48.282;14.398;2023-12-04T00:23:18;-8.00;99.90
2579;DHT22;1299;48.282;14.398;2023-12-04T00:25:46;-7.90;99.90
2579;DHT22;1299;48.282;14.398;2023-12-04T00:28:13;-8.00;99.90
2579;DHT22;1299;48.282;14.398;2023-12-04T00:30:40;-8.00;99.90
2579;DHT22;1299;48.282;14.398;2023-12-04T00:33:06;-8.00;99.90
2579;DHT22;1299;48.282;14.398;2023-12-04T00:35:33;-7.90;99.90
2579;DHT22;1299;48.282;14.398;2023-12-04T00:38:00;-8.00;99.90
2579;DHT22;1299;48.282;14.398;2023-12-04T00:40:27;-8.00;99.90
2579;DHT22;1299;48.282;14.398;2023-12-04T00:42:56;-7.90;99.90
2579;DHT22;1299;48.282;14.398;2023-12-04T00:45:22;-7.90;99.90
2579;DHT22;1299;48.282;14.398;2023-12-04T00:47:50;-7.90;99.90
2579;DHT22;1299;48.282;14.398;2023-12-04T00:50:16;-7.70;99.90
2579;DHT22;1299;48.282;14.398;2023-12-04T00:52:44;-7.60;99.90
2579;DHT22;1299;48.282;14.398;2023-12-04T00:55:11;-7.60;99.90
2579;DHT22;1299;48.282;14.398;2023-12-04T00:57:38;-7.50;99.90
2579;DHT22;1299;48.282;14.398;2023-12-04T01:00:08;-7.60;99.90
2579;DHT22;1299;48.282;14.398;2023-12-04T01:02:35;-7.90;99.90
2579;DHT22;1299;48.282;14.398;2023-12-04T01:05:02;-8.00;99.90
2579;DHT22;1299;48.282;14.398;2023-12-04T01:07:29;-8.00;99.90
2579;DHT22;1299;48.282;14.398;2023-12-04T01:09:56;-8.00;99.90
2579;DHT22;1299;48.282;14.398;2023-12-04T01:12:23;-7.80;99.90
2579;DHT22;1299;48.282;14.398;2023-12-04T01:14:50;-7.80;99.90
2579;DHT22;1299;48.282;14.398;2023-12-04T01:17:18;-7.90;99.90
2579;DHT22;1299;48.282;14.398;2023-12-04T01:19:45;-7.90;99.90
2579;DHT22;1299;48.282;14.398;2023-12-04T01:22:13;-7.90;99.90
2579;DHT22;1299;48.282;14.398;2023-12-04T01:24:39;-7.80;99.90
2579;DHT22;1299;48.282;14.398;2023-12-04T01:27:06;-7.90;99.90
2579;DHT22;1299;48.282;14.398;2023-12-04T01:29:33;-8.30;99.90
2579;DHT22;1299;48.282;14.398;2023-12-04T01:32:00;-8.30;99.90
2579;DHT22;1299;48.282;14.398;2023-12-04T01:34:29;-8.60;99.90
2579;DHT22;1299;48.282;14.398;2023-12-04T01:36:56;-8.20;99.90
2579;DHT22;1299;48.282;14.398;2023-12-04T01:39:22;-7.90;99.90
2579;DHT22;1299;48.282;14.398;2023-12-04T01:41:49;-7.90;99.90
2579;DHT22;1299;48.282;14.398;2023-12-04T01:44:16;-8.00;99.90
2579;DHT22;1299;48.282;14.398;2023-12-04T01:46:43;-8.20;99.90
2579;DHT22;1299;48.282;14.398;2023-12-04T01:49:11;-8.20;99.90
2579;DHT22;1299;48.282;14.398;2023-12-04T01:51:39;-8.20;99.90
2579;DHT22;1299;48.282;14.398;2023-12-04T01:54:07;-8.20;99.90
2579;DHT22;1299;48.282;14.398;2023-12-04T01:56:34;-8.20;99.90
2579;DHT22;1299;48.282;14.398;2023-12-04T01:59:03;-8.40;99.90
2579;DHT22;1299;48.282;14.398;2023-12-04T02:01:30;-8.70;99.90
2579;DHT22;1299;48.282;14.398;2023-12-04T02:03:57;-8.60;99.90
2579;DHT22;1299;48.282;14.398;2023-12-04T02:06:27;-8.80;99.90
2579;DHT22;1299;48.282;14.398;2023-12-04T02:08:56;-8.80;99.90
2579;DHT22;1299;48.282;14.398;2023-12-04T02:11:23;-8.90;99.90
2579;DHT22;1299;48.282;14.398;2023-12-04T02:13:51;-8.80;99.90
2579;DHT22;1299;48.282;14.398;2023-12-04T02:16:18;-8.80;99.90
2579;DHT22;1299;48.282;14.398;2023-12-04T02:18:46;-8.70;99.90
2579;DHT22;1299;48.282;14.398;2023-12-04T02:21:13;-8.90;99.90
2579;DHT22;1299;48.282;14.398;2023-12-04T02:23:40;-9.00;99.90
2579;DHT22;1299;48.282;14.398;2023-12-04T02:26:13;-9.10;99.90
2579;DHT22;1299;48.282;14.398;2023-12-04T02:28:46;-9.10;99.90
2579;DHT22;1299;48.282;14.398;2023-12-04T02:31:13;-9.30;99.90
2579;DHT22;1299;48.282;14.398;2023-12-04T02:33:42;-9.30;99.90
2579;DHT22;1299;48.282;14.398;2023-12-04T02:36:10;-9.30;99.90
2579;DHT22;1299;48.282;14.398;2023-12-04T02:38:39;-9.30;99.90
2579;DHT22;1299;48.282;14.398;2023-12-04T02:41:06;-9.30;99.90
2579;DHT22;1299;48.282;14.398;2023-12-04T02:43:34;-9.30;99.90
2579;DHT22;1299;48.282;14.398;2023-12-04T02:46:01;-9.20;99.90
2579;DHT22;1299;48.282;14.398;2023-12-04T02:48:28;-9.20;99.90
2579;DHT22;1299;48.282;14.398;2023-12-04T02:50:55;-9.20;99.90
2579;DHT22;1299;48.282;14.398;2023-12-04T02:53:22;-9.30;99.90
2579;DHT22;1299;48.282;14.398;2023-12-04T02:55:49;-9.40;99.90
2579;DHT22;1299;48.282;14.398;2023-12-04T02:58:16;-9.50;99.90
2579;DHT22;1299;48.282;14.398;2023-12-04T03:00:45;-9.60;99.90
2579;DHT22;1299;48.282;14.398;2023-12-04T03:03:11;-9.40;99.90
2579;DHT22;1299;48.282;14.398;2023-12-04T03:05:38;-9.60;99.90
2579;DHT22;1299;48.282;14.398;2023-12-04T03:08:05;-9.60;99.90
2579;DHT22;1299;48.282;14.398;2023-12-04T03:10:32;-9.80;99.90
2579;DHT22;1299;48.282;14.398;2023-12-04T03:12:59;-9.80;99.90
2579;DHT22;1299;48.282;14.398;2023-12-04T03:15:26;-9.80;99.90
2579;DHT22;1299;48.282;14.398;2023-12-04T03:17:57;-9.80;99.90
2579;DHT22;1299;48.282;14.398;2023-12-04T03:20:25;-9.60;99.90
2579;DHT22;1299;48.282;14.398;2023-12-04T03:22:52;-9.60;99.90
2579;DHT22;1299;48.282;14.398;2023-12-04T03:25:19;-9.60;99.90
2579;DHT22;1299;48.282;14.398;2023-12-04T03:27:46;-9.80;99.90
2579;DHT22;1299;48.282;14.398;2023-12-04T03:30:13;-9.70;99.90
2579;DHT22;1299;48.282;14.398;2023-12-04T03:32:40;-9.60;99.90
2579;DHT22;1299;48.282;14.398;2023-12-04T03:35:08;-9.50;99.90
2579;DHT22;1299;48.282;14.398;2023-12-04T03:37:36;-9.50;99.90
2579;DHT22;1299;48.282;14.398;2023-12-04T03:40:04;-9.30;99.90
2579;DHT22;1299;48.282;14.398;2023-12-04T03:42:31;-9.20;99.90
2579;DHT22;1299;48.282;14.398;2023-12-04T03:44:58;-9.60;99.90
2579;DHT22;1299;48.282;14.398;2023-12-04T03:47:25;-9.50;99.90
2579;DHT22;1299;48.282;14.398;2023-12-04T03:49:52;-9.50;99.90
2579;DHT22;1299;48.282;14.398;2023-12-04T03:52:20;-10.00;99.90
2579;DHT22;1299;48.282;14.398;2023-12-04T03:54:47;-9.80;99.90
2579;DHT22;1299;48.282;14.398;2023-12-04T03:57:14;-10.00;99.90
2579;DHT22;1299;48.282;14.398;2023-12-04T03:59:41;-9.90;99.90
2579;DHT22;1299;48.282;14.398;2023-12-04T04:02:08;-10.00;99.90
2579;DHT22;1299;48.282;14.398;2023-12-04T04:04:35;-9.80;99.90
2579;DHT22;1299;48.282;14.398;2023-12-04T04:07:02;-9.60;99.90
2579;DHT22;1299;48.282;14.398;2023-12-04T04:09:30;-9.60;99.90
2579;DHT22;1299;48.282;14.398;2023-12-04T04:11:57;-9.60;99.90
2579;DHT22;1299;48.282;14.398;2023-12-04T04:14:24;-9.60;99.90
2579;DHT22;1299;48.282;14.398;2023-12-04T04:16:51;-9.50;99.90
2579;DHT22;1299;48.282;14.398;2023-12-04T04:19:18;-9.50;99.90
2579;DHT22;1299;48.282;14.398;2023-12-04T04:21:45;-9.50;99.90
2579;DHT22;1299;48.282;14.398;2023-12-04T04:24:13;-9.60;99.90
2579;DHT22;1299;48.282;14.398;2023-12-04T04:26:41;-9.70;99.90
2579;DHT22;1299;48.282;14.398;2023-12-04T04:29:08;-9.90;99.90
2579;DHT22;1299;48.282;14.398;2023-12-04T04:31:35;-10.00;99.90
2579;DHT22;1299;48.282;14.398;2023-12-04T04:34:02;-9.90;99.90
2579;DHT22;1299;48.282;14.398;2023-12-04T04:36:29;-10.20;99.90
2579;DHT22;1299;48.282;14.398;2023-12-04T04:38:56;-10.00;99.90
2579;DHT22;1299;48.282;14.398;2023-12-04T04:41:22;-9.80;99.90
2579;DHT22;1299;48.282;14.398;2023-12-04T04:43:51;-9.60;99.90
2579;DHT22;1299;48.282;14.398;2023-12-04T04:46:19;-9.70;99.90
2579;DHT22;1299;48.282;14.398;2023-12-04T04:48:46;-9.70;99.90
2579;DHT22;1299;48.282;14.398;2023-12-04T04:51:14;-9.80;99.90
2579;DHT22;1299;48.282;14.398;2023-12-04T04:53:41;-9.80;99.90
2579;DHT22;1299;48.282;14.398;2023-12-04T04:56:09;-9.90;99.90
2579;DHT22;1299;48.282;14.398;2023-12-04T04:58:36;-9.80;99.90
2579;DHT22;1299;48.282;14.398;2023-12-04T05:01:04;-9.60;99.90
2579;DHT22;1299;48.282;14.398;2023-12-04T05:03:31;-9.40;99.90
2579;DHT22;1299;48.282;14.398;2023-12-04T05:05:58;-9.60;99.90
2579;DHT22;1299;48.282;14.398;2023-12-04T05:08:25;-9.70;99.90
2579;DHT22;1299;48.282;14.398;2023-12-04T05:10:52;-9.50;99.90
2579;DHT22;1299;48.282;14.398;2023-12-04T05:13:19;-9.40;99.90
2579;DHT22;1299;48.282;14.398;2023-12-04T05:15:46;-9.60;99.90
2579;DHT22;1299;48.282;14.398;2023-12-04T05:18:14;-9.60;99.90
2579;DHT22;1299;48.282;14.398;2023-12-04T05:20:41;-9.80;99.90
2579;DHT22;1299;48.282;14.398;2023-12-04T05:23:08;-9.80;99.90
2579;DHT22;1299;48.282;14.398;2023-12-04T05:25:35;-10.10;99.90
2579;DHT22;1299;48.282;14.398;2023-12-04T05:28:03;-9.90;99.90
2579;DHT22;1299;48.282;14.398;2023-12-04T05:30:31;-9.80;99.90
2579;DHT22;1299;48.282;14.398;2023-12-04T05:32:57;-9.90;99.90
2579;DHT22;1299;48.282;14.398;2023-12-04T05:35:26;-9.90;99.90
2579;DHT22;1299;48.282;14.398;2023-12-04T05:37:53;-10.10;99.90
2579;DHT22;1299;48.282;14.398;2023-12-04T05:40:20;-10.10;99.90
2579;DHT22;1299;48.282;14.398;2023-12-04T05:42:46;-10.20;99.90
2579;DHT22;1299;48.282;14.398;2023-12-04T05:45:14;-10.20;99.90
2579;DHT22;1299;48.282;14.398;2023-12-04T05:47:40;-10.10;99.90
2579;DHT22;1299;48.282;14.398;2023-12-04T05:50:08;-10.00;99.90
2579;DHT22;1299;48.282;14.398;2023-12-04T05:52:36;-10.00;99.90
2579;DHT22;1299;48.282;14.398;2023-12-04T05:55:04;-10.00;99.90
2579;DHT22;1299;48.282;14.398;2023-12-04T05:57:31;-9.80;99.90
2579;DHT22;1299;48.282;14.398;2023-12-04T05:59:58;-9.90;99.90
2579;DHT22;1299;48.282;14.398;2023-12-04T06:02:25;-9.90;99.90
2579;DHT22;1299;48.282;14.398;2023-12-04T06:04:53;-9.90;99.90
2579;DHT22;1299;48.282;14.398;2023-12-04T06:07:20;-10.10;99.90
2579;DHT22;1299;48.282;14.398;2023-12-04T06:09:48;-9.90;99.90
2579;DHT22;1299;48.282;14.398;2023-12-04T06:12:15;-9.70;99.90
2579;DHT22;1299;48.282;14.398;2023-12-04T06:14:42;-9.60;99.90
2579;DHT22;1299;48.282;14.398;2023-12-04T06:17:09;-9.60;99.90
2579;DHT22;1299;48.282;14.398;2023-12-04T06:19:36;-9.50;99.90
2579;DHT22;1299;48.282;14.398;2023-12-04T06:22:03;-9.50;99.90
2579;DHT22;1299;48.282;14.398;2023-12-04T06:24:31;-9.50;99.90
2579;DHT22;1299;48.282;14.398;2023-12-04T06:26:59;-9.30;99.90
2579;DHT22;1299;48.282;14.398;2023-12-04T06:29:27;-9.30;99.90
2579;DHT22;1299;48.282;14.398;2023-12-04T06:31:55;-9.30;99.90
2579;DHT22;1299;48.282;14.398;2023-12-04T06:34:23;-9.30;99.90
2579;DHT22;1299;48.282;14.398;2023-12-04T06:36:51;-9.20;99.90
2579;DHT22;1299;48.282;14.398;2023-12-04T06:39:18;-9.20;99.90
2579;DHT22;1299;48.282;14.398;2023-12-04T06:41:45;-9.20;99.90
2579;DHT22;1299;48.282;14.398;2023-12-04T06:44:15;-9.20;99.90
2579;DHT22;1299;48.282;14.398;2023-12-04T06:46:44;-9.20;99.90
2579;DHT22;1299;48.282;14.398;2023-12-04T06:49:17;-9.20;99.90
2579;DHT22;1299;48.282;14.398;2023-12-04T06:51:44;-9.10;99.90
2579;DHT22;1299;48.282;14.398;2023-12-04T06:54:11;-9.10;99.90
2579;DHT22;1299;48.282;14.398;2023-12-04T06:56:39;-9.00;99.90
2579;DHT22;1299;48.282;14.398;2023-12-04T06:59:06;-8.80;99.90
2579;DHT22;1299;48.282;14.398;2023-12-04T07:01:34;-8.60;99.90
2579;DHT22;1299;48.282;14.398;2023-12-04T07:04:01;-8.40;99.90
2579;DHT22;1299;48.282;14.398;2023-12-04T07:06:35;-8.30;99.90
2579;DHT22;1299;48.282;14.398;2023-12-04T07:09:02;-7.90;99.90
2579;DHT22;1299;48.282;14.398;2023-12-04T07:11:29;-7.30;99.90
2579;DHT22;1299;48.282;14.398;2023-12-04T07:13:56;-6.40;99.90
2579;DHT22;1299;48.282;14.398;2023-12-04T07:16:23;-5.50;99.90
2579;DHT22;1299;48.282;14.398;2023-12-04T07:18:51;-3.30;97.90
2579;DHT22;1299;48.282;14.398;2023-12-04T07:21:18;-2.30;92.60
2579;DHT22;1299;48.282;14.398;2023-12-04T07:23:45;-3.40;91.10
2579;DHT22;1299;48.282;14.398;2023-12-04T07:26:12;-5.10;97.30
2579;DHT22;1299;48.282;14.398;2023-12-04T07:28:39;-6.00;99.90
2579;DHT22;1299;48.282;14.398;2023-12-04T07:31:07;-6.50;99.90
2579;DHT22;1299;48.282;14.398;2023-12-04T07:33:34;-6.20;99.90
2579;DHT22;1299;48.282;14.398;2023-12-04T07:36:03;-5.70;99.90
2579;DHT22;1299;48.282;14.398;2023-12-04T07:38:30;-5.30;99.90
2579;DHT22;1299;48.282;14.398;2023-12-04T07:40:57;-4.30;99.90
2579;DHT22;1299;48.282;14.398;2023-12-04T07:43:24;-2.10;99.90
2579;DHT22;1299;48.282;14.398;2023-12-04T07:45:50;-0.20;94.60
2579;DHT22;1299;48.282;14.398;2023-12-04T07:50:44;0.20;91.20
2579;DHT22;1299;48.282;14.398;2023-12-04T07:53:13;0.10;90.60
2579;DHT22;1299;48.282;14.398;2023-12-04T07:55:40;-0.80;89.70
2579;DHT22;1299;48.282;14.398;2023-12-04T07:58:07;-1.00;90.70
2579;DHT22;1299;48.282;14.398;2023-12-04T08:00:34;-1.30;90.30
2579;DHT22;1299;48.282;14.398;2023-12-04T08:03:00;-1.70;93.50
2579;DHT22;1299;48.282;14.398;2023-12-04T08:05:28;-2.00;98.20
2579;DHT22;1299;48.282;14.398;2023-12-04T08:07:55;-2.40;99.90
2579;DHT22;1299;48.282;14.398;2023-12-04T08:10:23;-2.50;99.90
2579;DHT22;1299;48.282;14.398;2023-12-04T08:12:50;-2.60;99.90
2579;DHT22;1299;48.282;14.398;2023-12-04T08:15:17;-2.60;99.90
2579;DHT22;1299;48.282;14.398;2023-12-04T08:17:44;-2.70;99.90
2579;DHT22;1299;48.282;14.398;2023-12-04T08:20:11;-2.70;99.90
2579;DHT22;1299;48.282;14.398;2023-12-04T08:22:39;-2.40;99.90
2579;DHT22;1299;48.282;14.398;2023-12-04T08:25:07;-2.10;99.90
2579;DHT22;1299;48.282;14.398;2023-12-04T08:27:35;-1.40;99.90
2579;DHT22;1299;48.282;14.398;2023-12-04T08:30:04;-1.30;99.90
2579;DHT22;1299;48.282;14.398;2023-12-04T08:32:31;-1.00;99.90
2579;DHT22;1299;48.282;14.398;2023-12-04T08:34:58;-0.80;99.90
2579;DHT22;1299;48.282;14.398;2023-12-04T08:37:25;-0.40;99.90
2579;DHT22;1299;48.282;14.398;2023-12-04T08:39:52;0.30;95.70
2579;DHT22;1299;48.282;14.398;2023-12-04T08:42:19;0.40;99.90
2579;DHT22;1299;48.282;14.398;2023-12-04T08:44:47;0.50;97.50
2579;DHT22;1299;48.282;14.398;2023-12-04T08:47:14;1.20;99.90
2579;DHT22;1299;48.282;14.398;2023-12-04T08:49:41;1.10;93.10
2579;DHT22;1299;48.282;14.398;2023-12-04T08:52:08;0.70;94.30
2579;DHT22;1299;48.282;14.398;2023-12-04T08:54:35;0.50;99.90
2579;DHT22;1299;48.282;14.398;2023-12-04T08:57:05;1.00;95.40
2579;DHT22;1299;48.282;14.398;2023-12-04T08:59:32;0.80;99.90
2579;DHT22;1299;48.282;14.398;2023-12-04T09:02:00;-0.30;96.50
2579;DHT22;1299;48.282;14.398;2023-12-04T09:04:29;-1.60;99.90
2579;DHT22;1299;48.282;14.398;2023-12-04T09:06:56;-0.30;99.90
2579;DHT22;1299;48.282;14.398;2023-12-04T09:09:23;-0.10;99.90
2579;DHT22;1299;48.282;14.398;2023-12-04T09:11:50;-0.30;99.90
2579;DHT22;1299;48.282;14.398;2023-12-04T09:14:17;0.00;99.90
2579;DHT22;1299;48.282;14.398;2023-12-04T09:16:44;0.10;99.90
2579;DHT22;1299;48.282;14.398;2023-12-04T09:19:12;0.10;99.90
2579;DHT22;1299;48.282;14.398;2023-12-04T09:21:39;0.00;99.90
2579;DHT22;1299;48.282;14.398;2023-12-04T09:24:06;0.20;99.90
2579;DHT22;1299;48.282;14.398;2023-12-04T09:26:33;0.80;99.90
2579;DHT22;1299;48.282;14.398;2023-12-04T09:29:00;1.20;99.90
2579;DHT22;1299;48.282;14.398;2023-12-04T09:31:28;1.10;98.60
2579;DHT22;1299;48.282;14.398;2023-12-04T09:33:55;0.80;98.40
2579;DHT22;1299;48.282;14.398;2023-12-04T09:36:23;0.40;98.90
2579;DHT22;1299;48.282;14.398;2023-12-04T09:38:50;0.80;99.90
2579;DHT22;1299;48.282;14.398;2023-12-04T09:41:17;1.10;99.90
2579;DHT22;1299;48.282;14.398;2023-12-04T09:43:45;1.30;99.90
2579;DHT22;1299;48.282;14.398;2023-12-04T09:46:12;1.40;96.00
2579;DHT22;1299;48.282;14.398;2023-12-04T09:48:41;1.00;99.90
2579;DHT22;1299;48.282;14.398;2023-12-04T09:51:09;1.00;99.90
2579;DHT22;1299;48.282;14.398;2023-12-04T09:53:38;1.10;98.80
2579;DHT22;1299;48.282;14.398;2023-12-04T09:56:08;0.50;99.90
2579;DHT22;1299;48.282;14.398;2023-12-04T09:58:37;1.10;99.90
2579;DHT22;1299;48.282;14.398;2023-12-04T10:01:07;1.10;99.90
2579;DHT22;1299;48.282;14.398;2023-12-04T10:03:35;0.90;99.90
2579;DHT22;1299;48.282;14.398;2023-12-04T10:06:02;0.90;99.90
2579;DHT22;1299;48.282;14.398;2023-12-04T10:08:30;0.80;99.90
2579;DHT22;1299;48.282;14.398;2023-12-04T10:10:59;1.10;99.90
2579;DHT22;1299;48.282;14.398;2023-12-04T10:13:26;1.20;99.90
2579;DHT22;1299;48.282;14.398;2023-12-04T10:15:53;1.00;99.90
2579;DHT22;1299;48.282;14.398;2023-12-04T10:18:27;1.00;99.90
2579;DHT22;1299;48.282;14.398;2023-12-04T10:20:56;1.10;99.90
2579;DHT22;1299;48.282;14.398;2023-12-04T10:23:36;1.40;99.90
2579;DHT22;1299;48.282;14.398;2023-12-04T10:26:05;1.10;99.90
2579;DHT22;1299;48.282;14.398;2023-12-04T10:28:32;1.30;98.40
2579;DHT22;1299;48.282;14.398;2023-12-04T10:31:00;0.60;97.60
2579;DHT22;1299;48.282;14.398;2023-12-04T10:33:29;-0.10;99.90
2579;DHT22;1299;48.282;14.398;2023-12-04T10:35:56;-1.30;99.90
2579;DHT22;1299;48.282;14.398;2023-12-04T10:38:23;-1.70;99.90
2579;DHT22;1299;48.282;14.398;2023-12-04T10:40:52;-1.40;99.90
2579;DHT22;1299;48.282;14.398;2023-12-04T10:43:22;-2.20;99.90
2579;DHT22;1299;48.282;14.398;2023-12-04T10:45:50;-2.90;99.90
2579;DHT22;1299;48.282;14.398;2023-12-04T10:48:18;-3.20;99.90
2579;DHT22;1299;48.282;14.398;2023-12-04T10:50:46;-2.90;99.90
2579;DHT22;1299;48.282;14.398;2023-12-04T10:53:14;-3.20;99.90
2579;DHT22;1299;48.282;14.398;2023-12-04T10:55:43;-3.10;99.90
2579;DHT22;1299;48.282;14.398;2023-12-04T10:58:12;-2.80;99.90
2579;DHT22;1299;48.282;14.398;2023-12-04T11:00:43;-3.60;99.90
2579;DHT22;1299;48.282;14.398;2023-12-04T11:03:15;-3.90;99.90
2579;DHT22;1299;48.282;14.398;2023-12-04T11:05:45;-3.60;99.90
2579;DHT22;1299;48.282;14.398;2023-12-04T11:08:16;-3.70;99.90
2579;DHT22;1299;48.282;14.398;2023-12-04T11:10:47;-3.90;99.90
2579;DHT22;1299;48.282;14.398;2023-12-04T11:13:17;-4.00;99.90
2579;DHT22;1299;48.282;14.398;2023-12-04T11:15:50;-3.80;99.90
2579;DHT22;1299;48.282;14.398;2023-12-04T11:18:23;-3.20;99.90
2579;DHT22;1299;48.282;14.398;2023-12-04T11:20:53;-3.10;99.90
2579;DHT22;1299;48.282;14.398;2023-12-04T11:23:22;-3.80;99.90
2579;DHT22;1299;48.282;14.398;2023-12-04T11:25:50;-3.60;99.90
2579;DHT22;1299;48.282;14.398;2023-12-04T11:28:18;-3.40;99.90
2579;DHT22;1299;48.282;14.398;2023-12-04T11:30:45;-3.20;99.90
2579;DHT22;1299;48.282;14.398;2023-12-04T11:33:15;-3.20;99.90
2579;DHT22;1299;48.282;14.398;2023-12-04T11:35:41;-3.80;99.90
2579;DHT22;1299;48.282;14.398;2023-12-04T11:38:08;-3.70;99.90
2579;DHT22;1299;48.282;14.398;2023-12-04T11:40:41;-3.90;99.90
2579;DHT22;1299;48.282;14.398;2023-12-04T11:43:22;-3.50;99.90
2579;DHT22;1299;48.282;14.398;2023-12-04T11:45:50;-3.10;99.90
2579;DHT22;1299;48.282;14.398;2023-12-04T11:48:22;-3.10;99.90
2579;DHT22;1299;48.282;14.398;2023-12-04T11:50:50;-3.30;99.90
2579;DHT22;1299;48.282;14.398;2023-12-04T11:53:17;-3.30;99.90
2579;DHT22;1299;48.282;14.398;2023-12-04T11:55:44;-3.10;99.90
2579;DHT22;1299;48.282;14.398;2023-12-04T11:58:12;-2.90;99.90
2579;DHT22;1299;48.282;14.398;2023-12-04T12:00:42;-2.50;99.90
2579;DHT22;1299;48.282;14.398;2023-12-04T12:03:09;-3.00;99.90
2579;DHT22;1299;48.282;14.398;2023-12-04T12:05:38;-3.20;99.90
2579;DHT22;1299;48.282;14.398;2023-12-04T12:08:07;-3.00;99.90
2579;DHT22;1299;48.282;14.398;2023-12-04T12:10:35;-3.10;99.90
2579;DHT22;1299;48.282;14.398;2023-12-04T12:13:01;-2.40;99.90
2579;DHT22;1299;48.282;14.398;2023-12-04T12:15:29;-2.60;99.90
2579;DHT22;1299;48.282;14.398;2023-12-04T12:17:56;-2.50;99.90
2579;DHT22;1299;48.282;14.398;2023-12-04T12:20:23;-2.00;99.90
2579;DHT22;1299;48.282;14.398;2023-12-04T12:22:52;-1.60;99.90
2579;DHT22;1299;48.282;14.398;2023-12-04T12:25:19;-1.60;99.90
2579;DHT22;1299;48.282;14.398;2023-12-04T12:27:46;-1.40;99.90
2579;DHT22;1299;48.282;14.398;2023-12-04T12:30:13;-1.00;99.90
2579;DHT22;1299;48.282;14.398;2023-12-04T12:32:40;-1.00;99.90
2579;DHT22;1299;48.282;14.398;2023-12-04T12:35:07;-1.40;99.90
2579;DHT22;1299;48.282;14.398;2023-12-04T12:37:35;-1.40;99.90
2579;DHT22;1299;48.282;14.398;2023-12-04T12:40:04;-1.10;99.90
2579;DHT22;1299;48.282;14.398;2023-12-04T12:42:35;-0.80;99.90
2579;DHT22;1299;48.282;14.398;2023-12-04T12:45:04;-0.60;99.90
2579;DHT22;1299;48.282;14.398;2023-12-04T12:47:31;-0.60;99.90
2579;DHT22;1299;48.282;14.398;2023-12-04T12:50:00;-0.70;99.90
2579;DHT22;1299;48.282;14.398;2023-12-04T12:52:28;-0.50;99.90
2579;DHT22;1299;48.282;14.398;2023-12-04T12:54:55;-0.30;99.90
2579;DHT22;1299;48.282;14.398;2023-12-04T12:57:23;-0.40;99.90
2579;DHT22;1299;48.282;14.398;2023-12-04T12:59:51;-0.30;99.90
2579;DHT22;1299;48.282;14.398;2023-12-04T13:02:20;-0.20;99.90
2579;DHT22;1299;48.282;14.398;2023-12-04T13:04:47;-0.20;99.90
2579;DHT22;1299;48.282;14.398;2023-12-04T13:07:14;-0.10;99.90
2579;DHT22;1299;48.282;14.398;2023-12-04T13:09:41;-0.30;99.90
2579;DHT22;1299;48.282;14.398;2023-12-04T13:12:09;-0.50;99.90
2579;DHT22;1299;48.282;14.398;2023-12-04T13:14:38;-0.70;99.90
2579;DHT22;1299;48.282;14.398;2023-12-04T13:17:05;-0.80;99.90
2579;DHT22;1299;48.282;14.398;2023-12-04T13:19:32;-0.70;99.90
2579;DHT22;1299;48.282;14.398;2023-12-04T13:22:00;-0.40;99.90
2579;DHT22;1299;48.282;14.398;2023-12-04T13:24:29;-0.20;99.90
2579;DHT22;1299;48.282;14.398;2023-12-04T13:26:56;0.00;99.90
2579;DHT22;1299;48.282;14.398;2023-12-04T13:29:23;-0.50;99.90
2579;DHT22;1299;48.282;14.398;2023-12-04T13:31:51;-1.00;99.90
2579;DHT22;1299;48.282;14.398;2023-12-04T13:34:18;-0.70;99.90
2579;DHT22;1299;48.282;14.398;2023-12-04T13:36:45;-1.00;99.90
2579;DHT22;1299;48.282;14.398;2023-12-04T13:39:12;-0.70;99.90
2579;DHT22;1299;48.282;14.398;2023-12-04T13:41:46;-0.90;99.90
2579;DHT22;1299;48.282;14.398;2023-12-04T13:44:30;-0.70;99.90
2579;DHT22;1299;48.282;14.398;2023-12-04T13:47:01;-0.50;99.90
2579;DHT22;1299;48.282;14.398;2023-12-04T13:49:28;-0.40;99.90
2579;DHT22;1299;48.282;14.398;2023-12-04T13:51:55;-0.30;99.90
2579;DHT22;1299;48.282;14.398;2023-12-04T13:54:23;-0.50;99.90
2579;DHT22;1299;48.282;14.398;2023-12-04T13:57:01;-0.40;99.90
2579;DHT22;1299;48.282;14.398;2023-12-04T13:59:29;-0.50;99.90
2579;DHT22;1299;48.282;14.398;2023-12-04T14:02:00;-0.50;99.90
2579;DHT22;1299;48.282;14.398;2023-12-04T14:04:30;-0.40;99.90
2579;DHT22;1299;48.282;14.398;2023-12-04T14:06:56;-0.40;99.90
2579;DHT22;1299;48.282;14.398;2023-12-04T14:09:23;-0.50;99.90
2579;DHT22;1299;48.282;14.398;2023-12-04T14:11:50;-0.40;99.90
2579;DHT22;1299;48.282;14.398;2023-12-04T14:14:17;-0.40;99.90
2579;DHT22;1299;48.282;14.398;2023-12-04T14:16:44;-0.40;99.90
2579;DHT22;1299;48.282;14.398;2023-12-04T14:19:14;-1.30;99.90
2579;DHT22;1299;48.282;14.398;2023-12-04T14:21:43;-1.40;99.90
2579;DHT22;1299;48.282;14.398;2023-12-04T14:24:10;-1.00;99.90
2579;DHT22;1299;48.282;14.398;2023-12-04T14:26:37;-1.20;99.90
2579;DHT22;1299;48.282;14.398;2023-12-04T14:29:03;-1.00;99.90
2579;DHT22;1299;48.282;14.398;2023-12-04T14:31:33;-0.80;99.90
2579;DHT22;1299;48.282;14.398;2023-12-04T14:34:00;-0.60;99.90
2579;DHT22;1299;48.282;14.398;2023-12-04T14:36:30;-0.80;99.90
2579;DHT22;1299;48.282;14.398;2023-12-04T14:38:57;-1.00;99.90
2579;DHT22;1299;48.282;14.398;2023-12-04T14:41:24;-0.90;99.90
2579;DHT22;1299;48.282;14.398;2023-12-04T14:43:51;-1.00;99.90
2579;DHT22;1299;48.282;14.398;2023-12-04T14:46:19;-1.10;99.90
2579;DHT22;1299;48.282;14.398;2023-12-04T14:48:46;-1.10;99.90
2579;DHT22;1299;48.282;14.398;2023-12-04T14:51:13;-1.10;99.90
2579;DHT22;1299;48.282;14.398;2023-12-04T14:53:42;-1.00;99.90
2579;DHT22;1299;48.282;14.398;2023-12-04T14:56:16;-0.90;99.90
2579;DHT22;1299;48.282;14.398;2023-12-04T14:58:51;-0.80;99.90
2579;DHT22;1299;48.282;14.398;2023-12-04T15:01:50;-1.30;99.90
2579;DHT22;1299;48.282;14.398;2023-12-04T15:05:02;-1.80;99.90
2579;DHT22;1299;48.282;14.398;2023-12-04T15:08:11;-2.10;99.90
2579;DHT22;1299;48.282;14.398;2023-12-04T15:11:08;-1.60;99.90
2579;DHT22;1299;48.282;14.398;2023-12-04T15:14:01;-2.00;99.90
2579;DHT22;1299;48.282;14.398;2023-12-04T15:16:35;-1.40;99.90
2579;DHT22;1299;48.282;14.398;2023-12-04T15:19:07;-1.30;99.90
2579;DHT22;1299;48.282;14.398;2023-12-04T15:21:52;-1.20;99.90
2579;DHT22;1299;48.282;14.398;2023-12-04T15:24:20;-1.50;99.90
2579;DHT22;1299;48.282;14.398;2023-12-04T15:26:48;-1.70;99.90
2579;DHT22;1299;48.282;14.398;2023-12-04T15:29:14;-1.80;99.90
2579;DHT22;1299;48.282;14.398;2023-12-04T15:31:44;-2.10;99.90
2579;DHT22;1299;48.282;14.398;2023-12-04T15:34:11;-2.30;99.90
2579;DHT22;1299;48.282;14.398;2023-12-04T15:36:37;-2.30;99.90
2579;DHT22;1299;48.282;14.398;2023-12-04T15:39:05;-2.60;99.90
2579;DHT22;1299;48.282;14.398;2023-12-04T15:41:31;-2.50;99.90
2579;DHT22;1299;48.282;14.398;2023-12-04T15:43:59;-2.50;99.90
2579;DHT22;1299;48.282;14.398;2023-12-04T15:46:25;-2.70;99.90
2579;DHT22;1299;48.282;14.398;2023-12-04T15:48:54;-2.60;99.90
2579;DHT22;1299;48.282;14.398;2023-12-04T15:51:21;-2.70;99.90
2579;DHT22;1299;48.282;14.398;2023-12-04T15:53:47;-2.70;99.90
2579;DHT22;1299;48.282;14.398;2023-12-04T15:56:16;-2.70;99.90